Time;durP1;ratioP1;P1;durP2;ratioP2;P2;SDS_P1;SDS_P2;PMS_P1;PMS_P2;Temp;Humidity;BMP_temperature;BMP_pressure;BME280_temperature;BME280_humidity;BME280_pressure;Samples;Min_cycle;Max_cycle;Signal;HPM_P1;HPM_P2
2021/11/30 00:02:19;;;;;;;;;5.00;5.00;;;;;19.77;35.58;101561.34;5078294;27;51007;-45
2021/11/30 00:04:45;;;;;;;;;6.25;5.75;;;;;19.75;35.69;101555.22;5088360;27;51236;-46
2021/11/30 00:07:10;;;;;;;;;4.75;4.00;;;;;19.73;35.55;101552.66;5066928;27;51739;-44
2021/11/30 00:12:04;;;;;;;;;5.00;4.00;;;;;19.69;35.49;101553.25;5057090;28;51368;-44
2021/11/30 00:14:29;;;;;;;;;5.25;5.25;;;;;19.67;35.84;101552.59;5069644;27;50996;-44
2021/11/30 00:16:57;;;;;;;;;5.00;5.00;;;;;19.64;35.84;101544.75;5080548;27;51198;-43
2021/11/30 00:19:22;;;;;;;;;4.25;4.25;;;;;19.62;35.62;101550.47;5064752;27;51124;-43
2021/11/30 00:21:48;;;;;;;;;6.75;6.25;;;;;19.60;35.61;101550.66;5075982;28;51065;-44
2021/11/30 00:24:13;;;;;;;;;4.50;4.50;;;;;19.58;35.77;101551.88;5079812;27;50880;-43
2021/11/30 00:26:39;;;;;;;;;4.25;4.25;;;;;19.56;35.75;101548.50;5079738;27;51903;-43
2021/11/30 00:29:04;;;;;;;;;6.00;5.75;;;;;19.55;35.82;101552.25;5079554;27;51103;-46
2021/11/30 00:31:29;;;;;;;;;7.25;5.00;;;;;19.52;35.85;101539.78;5062857;28;51035;-49
2021/11/30 00:33:55;;;;;;;;;6.00;5.00;;;;;19.49;35.70;101534.69;5060134;28;50861;-44
2021/11/30 00:36:21;;;;;;;;;4.75;4.00;;;;;19.49;35.79;101536.59;5079824;27;51204;-44
2021/11/30 00:38:47;;;;;;;;;5.75;5.75;;;;;19.46;35.64;101548.81;5083768;27;51074;-48
2021/11/30 00:41:12;;;;;;;;;4.00;4.00;;;;;19.44;35.72;101547.31;5082748;27;50934;-43
2021/11/30 00:43:39;;;;;;;;;6.00;4.25;;;;;19.43;35.73;101540.13;5076076;27;51010;-44
2021/11/30 00:46:13;;;;;;;;;6.00;5.00;;;;;19.41;35.56;101537.59;5103408;27;51626;-43
2021/11/30 00:48:39;;;;;;;;;4.25;4.25;;;;;19.40;35.91;101535.03;5079652;27;51363;-46
2021/11/30 00:51:09;;;;;;;;;5.75;5.75;;;;;19.37;35.76;101530.75;5075324;28;51000;-44
2021/11/30 00:53:35;;;;;;;;;4.75;3.50;;;;;19.35;35.69;101521.88;5080262;28;50824;-44
2021/11/30 00:56:01;;;;;;;;;3.75;3.75;;;;;19.33;35.69;101523.97;5095256;27;52852;-45
2021/11/30 00:58:27;;;;;;;;;3.00;3.00;;;;;19.32;35.71;101531.38;5077649;28;51066;-44
2021/11/30 01:00:52;;;;;;;;;3.75;3.75;;;;;19.30;35.86;101536.22;5078320;27;51163;-46
2021/11/30 01:03:17;;;;;;;;;3.25;3.25;;;;;19.29;35.78;101531.78;5060998;27;50908;-45
2021/11/30 01:05:43;;;;;;;;;5.25;4.25;;;;;19.27;35.70;101533.84;5085510;27;51791;-44
2021/11/30 01:08:08;;;;;;;;;4.00;4.00;;;;;19.26;35.89;101529.41;5086806;27;51055;-51
2021/11/30 01:10:36;;;;;;;;;4.00;4.00;;;;;19.24;35.56;101528.75;5093848;27;51093;-46
2021/11/30 01:13:03;;;;;;;;;5.00;5.00;;;;;19.24;35.68;101525.16;5073211;28;51046;-45
2021/11/30 01:15:29;;;;;;;;;4.25;4.25;;;;;19.20;35.77;101532.09;5078220;27;51012;-45
2021/11/30 01:17:54;;;;;;;;;4.00;2.50;;;;;19.20;35.88;101521.13;5079521;27;50970;-45
2021/11/30 01:20:20;;;;;;;;;5.25;5.25;;;;;19.19;35.72;101522.16;5079473;27;51047;-45
2021/11/30 01:22:46;;;;;;;;;4.50;4.25;;;;;19.17;35.97;101525.09;5079621;28;50975;-45
2021/11/30 01:25:12;;;;;;;;;3.50;3.50;;;;;19.15;35.84;101515.34;5077904;27;53312;-47
2021/11/30 01:27:38;;;;;;;;;4.00;4.00;;;;;19.14;35.96;101514.50;5074491;27;50882;-45
2021/11/30 01:30:06;;;;;;;;;4.50;4.00;;;;;19.14;36.02;101513.66;5058983;28;51039;-44
2021/11/30 01:32:31;;;;;;;;;5.50;4.50;;;;;19.12;35.86;101518.50;5058995;28;50925;-44
2021/11/30 01:34:57;;;;;;;;;4.50;4.00;;;;;19.10;35.87;101502.22;5068233;27;50994;-46
2021/11/30 01:37:22;;;;;;;;;2.50;1.00;;;;;19.10;36.07;101509.63;5087053;27;51025;-45
2021/11/30 01:39:48;;;;;;;;;5.50;4.00;;;;;19.08;35.88;101501.59;5097293;27;51573;-44
2021/11/30 01:42:14;;;;;;;;;4.50;4.50;;;;;19.06;35.93;101502.81;5077610;28;50920;-50
2021/11/30 01:49:54;;;;;;;;;3.00;2.00;;;;;19.03;35.86;101490.31;5098519;27;51109;-46
2021/11/30 01:52:20;;;;;;;;;5.25;3.00;;;;;19.02;35.85;101492.22;5079886;27;50984;-44
2021/11/30 01:54:46;;;;;;;;;3.25;3.25;;;;;19.01;35.86;101487.78;5095589;27;51857;-46
2021/11/30 01:57:15;;;;;;;;;4.00;4.00;;;;;18.99;35.99;101483.53;5088824;27;51047;-49
2021/11/30 01:59:41;;;;;;;;;4.00;4.00;;;;;18.98;36.02;101476.34;5087371;27;50979;-44
2021/11/30 02:02:07;;;;;;;;;3.75;3.75;;;;;18.97;36.26;101475.50;5091239;27;50914;-44
2021/11/30 02:04:33;;;;;;;;;5.75;3.50;;;;;18.95;36.25;101477.56;5078573;27;52781;-44
2021/11/30 02:06:58;;;;;;;;;4.00;3.00;;;;;18.94;36.00;101467.63;5078856;28;50951;-50
2021/11/30 02:09:23;;;;;;;;;4.50;3.50;;;;;18.92;36.14;101472.50;5075410;27;51125;-45
2021/11/30 02:11:50;;;;;;;;;2.00;2.00;;;;;18.93;36.02;101465.09;5062337;28;51184;-44
2021/11/30 02:14:16;;;;;;;;;3.00;3.00;;;;;18.92;35.99;101463.41;5058741;28;52786;-44
2021/11/30 02:16:42;;;;;;;;;4.00;4.00;;;;;18.90;36.04;101466.34;5075944;27;51081;-44
2021/11/30 02:19:07;;;;;;;;;3.00;2.00;;;;;18.90;36.13;101469.09;5066392;27;51031;-44
2021/11/30 02:21:39;;;;;;;;;3.25;2.75;;;;;18.89;36.10;101478.38;5078792;27;51233;-45
2021/11/30 02:24:05;;;;;;;;;3.00;3.00;;;;;18.87;36.14;101469.50;5078076;27;51993;-46
2021/11/30 02:26:34;;;;;;;;;3.00;2.75;;;;;18.87;36.03;101458.53;5075075;27;51347;-45
2021/11/30 02:28:59;;;;;;;;;3.00;3.00;;;;;18.86;35.99;101450.44;5096063;27;51121;-44
2021/11/30 02:31:28;;;;;;;;;3.00;3.00;;;;;18.87;36.06;101457.66;5094601;27;50985;-46
2021/11/30 02:33:55;;;;;;;;;4.00;4.00;;;;;18.84;36.08;101450.66;5077938;27;52593;-44
2021/11/30 02:36:32;;;;;;;;;2.25;2.25;;;;;18.83;36.09;101448.97;5076167;28;51064;-45
2021/11/30 02:38:59;;;;;;;;;3.25;2.75;;;;;18.83;36.16;101450.84;5078567;27;51139;-45
2021/11/30 02:41:25;;;;;;;;;8.75;3.50;;;;;18.82;36.21;101443.66;5063583;27;51004;-44
2021/11/30 02:43:51;;;;;;;;;3.00;3.00;;;;;18.81;36.20;101444.72;5058367;28;51727;-44
2021/11/30 02:46:30;;;;;;;;;4.00;2.00;;;;;18.80;36.34;101437.53;5082971;27;50915;-44
2021/11/30 02:48:56;;;;;;;;;2.00;2.00;;;;;18.79;36.37;101430.34;5079102;27;51233;-45
2021/11/30 02:51:22;;;;;;;;;4.25;4.25;;;;;18.78;36.34;101437.72;5082045;27;51157;-45
2021/11/30 02:53:47;;;;;;;;;4.00;3.25;;;;;18.77;36.14;101441.53;5067744;27;51126;-44
2021/11/30 02:56:12;;;;;;;;;3.75;3.75;;;;;18.77;36.46;101438.78;5075774;27;51067;-45
2021/11/30 02:58:38;;;;;;;;;2.25;1.50;;;;;18.75;36.19;101435.34;5077750;27;51064;-45
2021/11/30 03:01:06;;;;;;;;;4.00;4.00;;;;;18.74;36.25;101448.22;5062641;27;50944;-48
2021/11/30 03:03:31;;;;;;;;;3.00;3.00;;;;;18.74;36.43;101436.41;5077111;27;51231;-45
2021/11/30 03:05:57;;;;;;;;;5.75;4.00;;;;;18.73;36.19;101437.47;5077547;27;50900;-44
2021/11/30 03:08:23;;;;;;;;;3.00;3.00;;;;;18.73;36.19;101451.19;5078996;27;51286;-45
2021/11/30 03:10:48;;;;;;;;;2.50;2.50;;;;;18.72;36.23;101452.22;5082878;27;51159;-46
2021/11/30 03:13:14;;;;;;;;;3.00;3.00;;;;;18.71;36.38;101451.38;5085860;27;51069;-45
2021/11/30 03:15:39;;;;;;;;;3.75;3.00;;;;;18.71;36.51;101453.28;5076826;27;51014;-47
2021/11/30 03:18:05;;;;;;;;;3.25;2.25;;;;;18.69;36.26;101448.00;5077548;27;51156;-48
2021/11/30 03:20:31;;;;;;;;;3.00;2.25;;;;;18.70;36.28;101446.09;5093646;27;51307;-42
2021/11/30 03:22:56;;;;;;;;;3.00;2.00;;;;;18.68;36.21;101434.47;5077489;28;51589;-44
2021/11/30 03:25:21;;;;;;;;;2.00;2.00;;;;;18.62;36.31;101436.06;5076988;27;51056;-42
2021/11/30 03:27:48;;;;;;;;;2.00;2.00;;;;;18.66;36.41;101450.28;5084645;27;51241;-45
2021/11/30 03:30:15;;;;;;;;;3.00;3.00;;;;;18.65;36.31;101449.44;5074572;27;51080;-45
2021/11/30 03:35:25;;;;;;;;;2.00;2.00;;;;;18.64;36.30;101455.06;5077094;27;51286;-44
2021/11/30 03:37:51;;;;;;;;;2.00;2.00;;;;;18.64;36.51;101464.19;5076374;28;51389;-45
2021/11/30 03:40:17;;;;;;;;;3.00;2.00;;;;;18.64;36.23;101468.78;5082501;27;50984;-45
2021/11/30 03:42:42;;;;;;;;;2.00;2.00;;;;;18.63;36.26;101456.09;5076789;27;50961;-46
2021/11/30 03:45:08;;;;;;;;;4.50;2.25;;;;;18.62;36.18;101465.38;5077890;27;51100;-45
2021/11/30 03:47:34;;;;;;;;;2.25;2.25;;;;;18.61;36.36;101460.94;5076016;27;51121;-46
2021/11/30 03:49:59;;;;;;;;;3.75;2.00;;;;;18.61;36.27;101466.44;5089291;27;51070;-43
2021/11/30 03:52:25;;;;;;;;;2.75;2.75;;;;;18.59;36.51;101461.16;5085557;27;51837;-45
2021/11/30 03:54:50;;;;;;;;;2.00;2.00;;;;;18.59;36.54;101469.38;5084814;27;50982;-43
2021/11/30 03:57:16;;;;;;;;;4.75;3.00;;;;;18.58;36.34;101458.59;5100985;27;50943;-43
2021/11/30 03:59:41;;;;;;;;;3.00;3.00;;;;;18.58;36.21;101464.09;5097533;27;51203;-44
2021/11/30 04:02:06;;;;;;;;;3.25;2.00;;;;;18.57;36.47;101466.00;5080280;27;50942;-43
2021/11/30 04:04:35;;;;;;;;;1.00;1.00;;;;;18.56;36.50;101460.69;5092351;27;51037;-44
2021/11/30 04:07:00;;;;;;;;;3.00;3.00;;;;;18.55;36.54;101464.47;5086507;27;51197;-45
2021/11/30 04:09:27;;;;;;;;;1.50;1.50;;;;;18.54;36.44;101471.00;5086555;27;51134;-45
2021/11/30 04:11:53;;;;;;;;;2.50;2.50;;;;;18.53;36.29;101474.78;5100414;27;51898;-42
2021/11/30 04:14:19;;;;;;;;;4.00;2.25;;;;;18.54;36.41;101462.75;5085823;27;51130;-44
2021/11/30 04:16:46;;;;;;;;;1.75;1.75;;;;;18.53;36.56;101456.44;5084488;27;51262;-44
2021/11/30 04:19:11;;;;;;;;;3.00;3.00;;;;;18.52;36.34;101462.97;5079470;27;51133;-43
2021/11/30 04:21:37;;;;;;;;;3.00;3.00;;;;;18.52;36.50;101456.63;5079564;27;52812;-45
2021/11/30 04:24:02;;;;;;;;;2.25;2.00;;;;;18.50;36.40;101451.34;5087284;27;51160;-45
2021/11/30 04:26:28;;;;;;;;;2.00;2.00;;;;;18.50;36.71;101458.72;5085674;27;51022;-46
2021/11/30 04:28:54;;;;;;;;;3.00;3.00;;;;;18.49;36.56;101449.63;5083455;27;50980;-44
2021/11/30 04:31:20;;;;;;;;;2.50;1.25;;;;;18.50;36.47;101445.00;5079743;27;52903;-44
2021/11/30 04:33:45;;;;;;;;;3.50;2.75;;;;;18.49;36.34;101448.78;5087269;27;50822;-45
2021/11/30 04:36:11;;;;;;;;;2.25;2.00;;;;;18.48;36.66;101441.59;5084268;27;51702;-43
2021/11/30 04:38:38;;;;;;;;;3.00;2.00;;;;;18.45;36.46;101443.72;5080412;27;51086;-43
2021/11/30 04:41:05;;;;;;;;;2.00;1.75;;;;;18.45;36.53;101438.22;5100452;27;51320;-46
2021/11/30 04:43:35;;;;;;;;;4.25;3.00;;;;;18.46;36.52;101434.44;5100146;27;51248;-42
2021/11/30 04:48:43;;;;;;;;;2.00;2.00;;;;;18.44;36.52;101430.16;5099072;27;50860;-45
2021/11/30 04:51:13;;;;;;;;;3.50;3.50;;;;;18.43;36.57;101429.31;5073254;27;52234;-43
2021/11/30 04:53:42;;;;;;;;;2.00;2.00;;;;;18.42;36.52;101429.50;5060721;28;51499;-43
2021/11/30 04:56:07;;;;;;;;;2.50;2.00;;;;;18.41;36.44;101425.91;5059274;27;51347;-45
2021/11/30 04:58:32;;;;;;;;;3.00;3.00;;;;;18.41;36.50;101439.63;5058798;28;51049;-43
2021/11/30 05:00:58;;;;;;;;;4.00;2.00;;;;;18.40;36.56;101443.41;5061427;28;51414;-44
2021/11/30 05:03:23;;;;;;;;;2.25;2.00;;;;;18.40;36.45;101440.69;5059404;28;50914;-42
2021/11/30 05:05:49;;;;;;;;;4.75;3.00;;;;;18.39;36.65;101444.47;5062431;28;50994;-44
2021/11/30 05:08:14;;;;;;;;;2.25;2.00;;;;;18.40;36.76;101439.84;5067422;27;51292;-45
2021/11/30 05:10:40;;;;;;;;;2.00;2.00;;;;;18.39;36.67;101438.97;5075123;28;54190;-46
2021/11/30 05:13:06;;;;;;;;;2.50;1.00;;;;;18.38;36.72;101439.19;5079107;27;51026;-44
2021/11/30 05:15:32;;;;;;;;;2.00;2.00;;;;;18.37;36.74;101438.34;5079351;27;50937;-43
2021/11/30 05:17:57;;;;;;;;;2.00;1.75;;;;;18.37;36.63;101434.75;5079104;27;50867;-45
2021/11/30 05:20:23;;;;;;;;;2.00;2.00;;;;;18.37;36.51;101437.47;5079249;27;51695;-43
2021/11/30 05:22:50;;;;;;;;;2.75;2.75;;;;;18.35;36.73;101426.72;5062755;28;50987;-47
2021/11/30 05:25:18;;;;;;;;;3.00;3.00;;;;;18.36;36.57;101427.56;5067675;27;51104;-43
2021/11/30 05:27:44;;;;;;;;;3.50;3.50;;;;;18.34;36.88;101419.53;5084981;27;51292;-44
2021/11/30 05:30:13;;;;;;;;;2.75;2.75;;;;;18.33;36.80;101408.72;5093820;27;51093;-48
2021/11/30 05:32:42;;;;;;;;;2.50;2.50;;;;;18.33;36.57;101411.47;5092549;27;51103;-46
2021/11/30 05:35:09;;;;;;;;;2.00;2.00;;;;;18.33;36.66;101414.22;5109986;27;51093;-43
2021/11/30 05:37:34;;;;;;;;;2.25;2.25;;;;;18.31;36.61;101403.44;5079254;27;50888;-42
2021/11/30 05:40:00;;;;;;;;;4.00;2.00;;;;;18.31;36.59;101410.81;5082809;27;50924;-43
2021/11/30 05:42:26;;;;;;;;;2.50;2.00;;;;;18.29;36.77;101400.06;5094759;27;51103;-43
2021/11/30 05:44:51;;;;;;;;;4.00;2.00;;;;;18.29;36.74;101412.91;5079101;27;51033;-44
2021/11/30 05:47:17;;;;;;;;;2.50;1.50;;;;;18.29;36.75;101404.69;5062192;27;50925;-43
2021/11/30 05:49:43;;;;;;;;;2.25;2.25;;;;;18.29;36.77;101407.44;5059119;28;51070;-44
2021/11/30 05:52:08;;;;;;;;;0.50;0.00;;;;;18.28;36.78;101408.47;5089798;27;50972;-43
2021/11/30 05:54:33;;;;;;;;;2.25;2.25;;;;;18.27;37.00;101417.75;5079107;27;51018;-42
2021/11/30 05:56:59;;;;;;;;;1.00;1.00;;;;;18.26;37.05;101419.63;5078873;27;51081;-50
2021/11/30 05:59:26;;;;;;;;;1.75;1.75;;;;;18.27;36.93;101417.75;5090885;27;52924;-44
2021/11/30 06:01:53;;;;;;;;;1.00;1.00;;;;;18.25;36.59;101408.88;5073620;27;51185;-43
2021/11/30 06:04:19;;;;;;;;;1.00;1.00;;;;;18.25;36.85;101404.22;5073919;27;51138;-42
2021/11/30 06:06:44;;;;;;;;;1.00;1.00;;;;;18.24;36.66;101401.69;5073098;27;51070;-43
2021/11/30 06:09:10;;;;;;;;;2.00;2.00;;;;;18.24;37.03;101424.47;5093136;27;50953;-44
2021/11/30 06:11:35;;;;;;;;;3.50;3.50;;;;;18.22;36.81;101421.06;5078157;27;50983;-43
2021/11/30 06:14:01;;;;;;;;;5.50;5.50;;;;;18.19;36.53;101421.44;5066201;27;51113;-43
2021/11/30 06:16:27;;;;;;;;;8.75;7.25;;;;;18.13;36.27;101416.72;5065048;28;50912;-44
2021/11/30 06:18:52;;;;;;;;;8.50;7.00;;;;;18.08;36.46;101419.22;5076969;27;51125;-43
2021/11/30 06:21:19;;;;;;;;;6.75;6.75;;;;;18.02;36.17;101425.44;5067629;27;51129;-44
2021/11/30 06:23:47;;;;;;;;;10.25;6.25;;;;;17.97;36.35;101427.94;5071577;27;51244;-46
2021/11/30 06:26:13;;;;;;;;;5.25;5.00;;;;;17.91;36.38;101428.69;5069797;27;51194;-44
2021/11/30 06:28:39;;;;;;;;;7.50;6.50;;;;;17.84;36.42;101418.50;5073380;27;51712;-44
2021/11/30 06:31:06;;;;;;;;;9.25;8.00;;;;;17.80;36.76;101395.25;5073121;27;51048;-43
2021/11/30 06:33:32;;;;;;;;;5.75;5.25;;;;;17.81;36.06;101407.06;5077320;27;51070;-43
2021/11/30 06:35:58;;;;;;;;;6.25;5.00;;;;;17.87;36.43;101411.78;5069585;27;51697;-45
2021/11/30 06:38:23;;;;;;;;;4.75;4.75;;;;;17.95;36.43;101413.56;5084414;27;52367;-42
2021/11/30 06:40:49;;;;;;;;;8.00;5.00;;;;;18.04;37.23;101412.44;5076593;27;51020;-45
2021/11/30 06:43:14;;;;;;;;;3.00;3.00;;;;;18.11;37.54;101416.91;5067155;28;51173;-45
2021/11/30 06:45:40;;;;;;;;;3.50;3.50;;;;;18.21;37.64;101413.88;5071135;27;51110;-45
2021/11/30 06:48:06;;;;;;;;;4.50;3.00;;;;;18.28;37.85;101406.59;5089495;27;51123;-45
2021/11/30 06:50:31;;;;;;;;;5.00;3.00;;;;;18.36;38.03;101395.50;5078950;27;50942;-45
2021/11/30 06:52:56;;;;;;;;;4.50;3.50;;;;;18.44;37.96;101395.38;5078993;27;51303;-42
2021/11/30 06:55:22;;;;;;;;;3.50;3.00;;;;;18.51;38.11;101398.16;5077138;27;51237;-43
2021/11/30 06:57:47;;;;;;;;;3.50;2.00;;;;;18.58;38.35;101407.31;5075463;27;51693;-43
2021/11/30 07:00:16;;;;;;;;;1.50;1.50;;;;;18.67;38.16;101402.59;5077969;27;51377;-43
2021/11/30 07:02:42;;;;;;;;;4.25;3.75;;;;;18.73;38.26;101399.03;5074138;27;51249;-44
2021/11/30 07:05:20;;;;;;;;;1.75;1.75;;;;;18.80;38.53;101405.44;5080772;27;51144;-44
2021/11/30 07:15:41;;;;;;;;;2.25;1.25;;;;;19.09;38.84;101404.41;5073239;27;51079;-45
2021/11/30 07:18:06;;;;;;;;;3.50;3.00;;;;;19.15;39.01;101414.59;5076523;27;51022;-45
2021/11/30 07:20:32;;;;;;;;;2.75;2.00;;;;;19.22;38.73;101415.50;5080494;27;51128;-43
2021/11/30 07:22:58;;;;;;;;;1.50;1.50;;;;;19.28;38.59;101419.34;5087353;27;51213;-44
2021/11/30 07:25:26;;;;;;;;;2.50;2.00;;;;;19.35;39.11;101411.13;5068959;27;51165;-46
2021/11/30 07:27:53;;;;;;;;;1.00;1.00;;;;;19.41;38.74;101426.84;5078625;27;51999;-45
2021/11/30 07:30:19;;;;;;;;;2.00;2.00;;;;;19.46;38.93;101425.16;5086401;27;51144;-45
2021/11/30 07:32:44;;;;;;;;;2.00;2.00;;;;;19.51;38.69;101417.19;5086390;27;51351;-43
2021/11/30 07:35:10;;;;;;;;;2.25;1.75;;;;;19.57;39.33;101426.53;5074764;27;52168;-45
2021/11/30 07:37:35;;;;;;;;;3.00;2.00;;;;;19.63;39.01;101430.38;5078217;27;51735;-46
2021/11/30 07:40:00;;;;;;;;;3.00;3.00;;;;;19.67;39.20;101435.25;5083985;27;51135;-45
2021/11/30 07:42:30;;;;;;;;;2.50;2.50;;;;;19.72;39.45;101448.41;5071314;27;50981;-45
2021/11/30 07:44:56;;;;;;;;;4.00;2.25;;;;;19.77;38.98;101433.00;5070878;27;51004;-44
2021/11/30 07:47:21;;;;;;;;;3.50;2.00;;;;;19.80;38.96;101432.59;5063221;27;51046;-47
2021/11/30 07:49:47;;;;;;;;;2.75;2.00;;;;;19.85;39.22;101430.06;5069848;27;51096;-46
2021/11/30 07:52:13;;;;;;;;;4.25;2.25;;;;;19.90;39.04;101426.69;5075619;27;50970;-44
2021/11/30 07:54:38;;;;;;;;;2.75;2.75;;;;;19.95;39.15;101426.09;5069729;27;51206;-44
2021/11/30 07:57:04;;;;;;;;;3.25;3.00;;;;;20.01;38.80;101433.50;5072909;27;51018;-44
2021/11/30 07:59:30;;;;;;;;;4.50;4.25;;;;;20.03;38.54;101432.28;5067102;28;51084;-47
2021/11/30 08:01:55;;;;;;;;;7.25;5.50;;;;;20.01;39.02;101434.41;5060674;27;53169;-44
2021/11/30 08:04:21;;;;;;;;;7.50;6.00;;;;;19.98;38.80;101433.94;5070569;27;51150;-45
2021/11/30 08:06:46;;;;;;;;;7.00;4.50;;;;;19.89;38.74;101434.09;5055042;28;52419;-46
2021/11/30 08:09:12;;;;;;;;;6.00;3.50;;;;;19.80;39.22;101439.97;5056277;28;51072;-43
2021/11/30 08:11:37;;;;;;;;;5.50;3.50;;;;;19.74;39.21;101432.56;5055878;28;51358;-44
2021/11/30 08:14:03;;;;;;;;;4.75;3.00;;;;;19.69;39.18;101448.78;5055109;28;51141;-43
2021/11/30 08:16:28;;;;;;;;;5.25;3.25;;;;;19.63;39.95;101441.38;5056068;28;52034;-46
2021/11/30 08:18:54;;;;;;;;;2.00;2.00;;;;;19.56;39.79;101436.69;5056813;28;51147;-45
2021/11/30 08:21:19;;;;;;;;;3.50;3.50;;;;;19.51;39.97;101444.66;5056132;28;51382;-46
2021/11/30 08:23:45;;;;;;;;;3.00;3.00;;;;;19.46;40.10;101447.16;5055675;28;50954;-48
2021/11/30 08:26:12;;;;;;;;;2.50;2.50;;;;;19.41;40.52;101443.31;5062029;27;51783;-45
2021/11/30 08:28:38;;;;;;;;;6.75;2.75;;;;;19.37;40.61;101447.50;5097010;27;51061;-45
2021/11/30 08:31:03;;;;;;;;;4.00;3.00;;;;;19.32;40.31;101443.47;5096897;27;51131;-45
2021/11/30 08:33:28;;;;;;;;;3.50;3.50;;;;;19.28;40.54;101444.06;5097351;27;50833;-45
2021/11/30 08:35:56;;;;;;;;;3.50;3.00;;;;;19.24;40.30;101438.13;5098874;27;53802;-46
2021/11/30 08:38:21;;;;;;;;;3.25;3.25;;;;;19.23;40.21;101441.91;5100444;27;51068;-46
2021/11/30 08:40:46;;;;;;;;;4.00;4.00;;;;;19.20;40.18;101442.31;5100026;27;51060;-45
2021/11/30 08:43:12;;;;;;;;;2.50;2.25;;;;;19.16;40.61;101442.91;5100569;27;51277;-46
2021/11/30 08:45:37;;;;;;;;;4.25;3.00;;;;;19.12;40.70;101456.19;5099886;27;50998;-47
2021/11/30 08:48:03;;;;;;;;;2.25;2.00;;;;;19.08;40.94;101435.69;5099741;27;50952;-49
2021/11/30 08:50:29;;;;;;;;;4.50;4.50;;;;;19.04;40.85;101443.44;5100307;27;51329;-47
2021/11/30 08:52:54;;;;;;;;;4.50;3.75;;;;;19.01;40.69;101440.25;5099101;27;50900;-45
2021/11/30 08:55:20;;;;;;;;;2.00;2.00;;;;;19.00;40.84;101444.91;5100332;27;51033;-46
2021/11/30 08:57:46;;;;;;;;;5.25;5.25;;;;;18.97;40.62;101442.56;5099496;27;51243;-45
2021/11/30 09:00:16;;;;;;;;;3.00;3.00;;;;;18.94;40.87;101445.69;5098909;27;51170;-46
2021/11/30 09:02:42;;;;;;;;;3.25;3.25;;;;;18.90;41.08;101438.91;5100110;27;51323;-48
2021/11/30 09:05:08;;;;;;;;;3.75;2.75;;;;;18.88;40.88;101432.75;5099719;27;51465;-47
2021/11/30 09:07:34;;;;;;;;;3.00;3.00;;;;;18.83;40.74;101424.25;5099793;27;51339;-46
2021/11/30 09:10:00;;;;;;;;;2.50;1.75;;;;;18.84;40.82;101436.94;5099688;27;51040;-45
2021/11/30 09:12:26;;;;;;;;;3.00;3.00;;;;;18.81;41.31;101436.47;5099110;27;51083;-46
2021/11/30 09:14:53;;;;;;;;;2.75;2.00;;;;;18.78;41.17;101440.47;5099143;27;50963;-45
2021/11/30 09:17:20;;;;;;;;;3.00;2.00;;;;;18.77;41.00;101452.50;5097273;27;51090;-45
2021/11/30 09:19:46;;;;;;;;;3.00;3.00;;;;;18.77;40.91;101446.16;5079138;27;51145;-44
2021/11/30 09:22:12;;;;;;;;;3.00;3.00;;;;;18.76;41.11;101453.56;5079448;28;50951;-49
2021/11/30 09:24:37;;;;;;;;;2.25;2.25;;;;;18.71;41.32;101443.16;5078822;27;50969;-44
2021/11/30 09:27:03;;;;;;;;;3.25;3.25;;;;;18.70;41.24;101452.44;5089233;27;51139;-45
2021/11/30 09:29:28;;;;;;;;;4.50;3.25;;;;;18.69;41.04;101449.88;5099538;27;51002;-46
2021/11/30 09:31:54;;;;;;;;;3.75;2.25;;;;;18.67;40.96;101444.59;5099920;27;51476;-48
2021/11/30 09:34:20;;;;;;;;;3.25;3.25;;;;;18.66;41.43;101444.81;5099057;27;51734;-43
2021/11/30 09:36:47;;;;;;;;;3.00;2.50;;;;;18.63;41.41;101445.97;5098876;27;51046;-44
2021/11/30 09:39:14;;;;;;;;;2.50;2.50;;;;;18.61;41.18;101448.06;5099628;27;51029;-49
2021/11/30 09:41:40;;;;;;;;;2.50;2.50;;;;;18.62;40.97;101446.19;5099681;27;50889;-48
2021/11/30 09:44:06;;;;;;;;;4.00;4.00;;;;;18.59;41.29;101450.16;5098555;27;52304;-44
2021/11/30 09:46:31;;;;;;;;;4.00;4.00;;;;;18.58;41.33;101453.13;5098874;27;50960;-46
2021/11/30 09:48:57;;;;;;;;;3.50;3.50;;;;;18.55;41.19;101456.22;5098983;27;51251;-44
2021/11/30 09:51:23;;;;;;;;;4.75;3.00;;;;;18.54;41.22;101449.03;5099274;27;51351;-46
2021/11/30 09:53:48;;;;;;;;;4.50;3.00;;;;;18.54;41.26;101451.78;5098933;27;50945;-44
2021/11/30 09:56:15;;;;;;;;;3.00;3.00;;;;;18.52;41.49;101456.63;5097757;27;51114;-44
2021/11/30 09:58:41;;;;;;;;;2.00;2.00;;;;;18.50;41.57;101448.59;5098833;27;51062;-45
2021/11/30 10:01:12;;;;;;;;;4.75;3.25;;;;;18.49;41.19;101448.78;5098039;27;51347;-50
2021/11/30 10:03:38;;;;;;;;;4.00;3.00;;;;;18.48;41.26;101438.88;5098515;27;52063;-44
2021/11/30 10:06:04;;;;;;;;;4.25;4.25;;;;;18.49;41.62;101451.53;5098999;27;51553;-45
2021/11/30 10:08:39;;;;;;;;;4.50;3.50;;;;;18.45;41.40;101448.34;5098940;27;51471;-44
2021/11/30 10:11:06;;;;;;;;;5.25;3.00;;;;;18.44;41.37;101441.13;5098672;27;50958;-44
2021/11/30 10:13:34;;;;;;;;;4.00;4.00;;;;;18.43;41.18;101439.44;5097229;27;52764;-44
2021/11/30 10:16:05;;;;;;;;;5.75;3.75;;;;;18.43;41.48;101433.94;5098554;27;51447;-45
2021/11/30 10:18:35;;;;;;;;;3.00;2.75;;;;;18.41;41.61;101447.00;5083369;27;51035;-45
2021/11/30 10:21:06;;;;;;;;;4.25;3.00;;;;;18.41;41.32;101445.13;5078540;28;51036;-44
2021/11/30 10:23:56;;;;;;;;;3.75;3.25;;;;;18.40;41.36;101440.69;5078006;27;51963;-44
2021/11/30 10:26:30;;;;;;;;;2.50;2.50;;;;;18.39;41.56;101438.97;5081422;27;51097;-43
2021/11/30 10:28:58;;;;;;;;;2.25;2.25;;;;;18.38;41.59;101434.53;5098223;27;51047;-47
2021/11/30 10:31:30;;;;;;;;;3.75;3.00;;;;;18.38;41.38;101433.69;5098483;27;51130;-44
2021/11/30 10:33:56;;;;;;;;;2.00;2.00;;;;;18.37;41.69;101449.31;5097573;27;51023;-45
2021/11/30 10:36:22;;;;;;;;;2.50;2.50;;;;;18.35;41.60;101434.94;5097755;27;51093;-45
2021/11/30 10:38:48;;;;;;;;;2.00;2.00;;;;;18.33;41.49;101439.75;5097999;27;51103;-43
2021/11/30 10:41:18;;;;;;;;;2.50;2.50;;;;;18.33;41.53;101433.41;5098109;27;50924;-45
2021/11/30 10:43:58;;;;;;;;;4.00;2.25;;;;;18.32;41.41;101432.56;5097810;27;50911;-46
2021/11/30 10:46:29;;;;;;;;;3.50;3.50;;;;;18.30;41.55;101440.16;5097662;27;51304;-44
2021/11/30 10:48:56;;;;;;;;;3.25;3.25;;;;;18.30;41.59;101436.56;5097901;27;50986;-45
2021/11/30 10:51:22;;;;;;;;;5.75;4.00;;;;;18.30;41.48;101428.31;5098419;27;51381;-43
2021/11/30 10:53:49;;;;;;;;;3.00;3.00;;;;;18.29;41.59;101422.00;5097657;27;51135;-45
2021/11/30 10:56:19;;;;;;;;;4.50;3.00;;;;;18.26;41.54;101416.91;5096851;27;51086;-44
2021/11/30 10:58:45;;;;;;;;;3.00;3.00;;;;;18.26;41.54;101416.91;5096531;27;51160;-44
2021/11/30 11:01:19;;;;;;;;;3.75;2.25;;;;;18.26;41.51;101416.91;5098103;27;51074;-46
2021/11/30 11:04:06;;;;;;;;;2.50;2.50;;;;;18.26;42.00;101427.88;5097194;27;52063;-46
2021/11/30 11:06:33;;;;;;;;;3.75;3.25;;;;;18.25;41.70;101417.94;5087480;27;51194;-44
2021/11/30 11:09:03;;;;;;;;;3.00;3.00;;;;;18.25;41.55;101415.19;5097454;27;50955;-46
2021/11/30 11:11:42;;;;;;;;;1.75;1.75;;;;;18.25;41.18;101404.22;5097975;27;51092;-46
2021/11/30 11:14:20;;;;;;;;;1.75;1.75;;;;;18.25;41.18;101397.91;5096927;27;51849;-43
2021/11/30 11:16:50;;;;;;;;;3.00;3.00;;;;;18.24;41.63;101402.53;5096650;27;51034;-45
2021/11/30 11:19:19;;;;;;;;;1.75;1.75;;;;;18.21;41.77;101402.91;5080696;27;50985;-45
2021/11/30 11:21:45;;;;;;;;;4.25;2.25;;;;;18.20;41.74;101389.41;5077377;27;51286;-45
2021/11/30 11:24:19;;;;;;;;;3.00;2.75;;;;;18.19;41.38;101385.81;5076775;28;51685;-47
2021/11/30 11:26:45;;;;;;;;;2.75;2.50;;;;;18.21;41.74;101394.69;5084549;27;50890;-42
2021/11/30 11:29:18;;;;;;;;;3.00;2.00;;;;;18.22;41.29;101376.34;5097530;27;50924;-46
2021/11/30 11:31:49;;;;;;;;;3.00;3.00;;;;;18.20;41.42;101384.75;5097520;27;51214;-43
2021/11/30 11:34:16;;;;;;;;;3.00;2.75;;;;;18.18;41.96;101382.22;5095801;27;52047;-42
2021/11/30 11:36:44;;;;;;;;;3.75;3.25;;;;;18.17;41.87;101379.66;5097347;27;51022;-44
2021/11/30 11:39:10;;;;;;;;;2.25;2.00;;;;;18.17;41.27;101377.78;5097283;27;51090;-43
2021/11/30 11:41:36;;;;;;;;;2.00;2.00;;;;;18.15;41.74;101368.91;5097337;27;51106;-44
2021/11/30 11:44:02;;;;;;;;;2.75;2.75;;;;;18.17;41.30;101372.28;5097161;27;50968;-43